Terminal Aerodrome Forecast
Issued by NWS Spokane, WA

Home | Current Version | Previous Version | Text Only | Print | Product List | Glossary On
Versions: 1 2 3 4 5 6 7 8 9 10 11 12 13 14 15 16 17 18 19 20 21 22 23 24 25 26 27 28 29 30 31 32 33 34
000
FTUS46 KOTX 200525
TAFLWS
TAF
KLWS 200525Z 2006/2106 VRB02KT 1/4SM FG VV001
     FM201100 12006KT 5SM BR SCT040 BKN080
     FM201500 10007KT P6SM -RA SCT025 OVC040
     FM202200 14008KT 4SM -RA BR OVC015=

USA.gov is the U.S. government's official web portal to all federal, state and local government web resources and services.